createdAt,value
2019-04-21T00:04:43.292Z,10.52
2019-04-21T00:09:53.340Z,10.41
2019-04-21T00:14:43.857Z,10.31
2019-04-21T00:19:33.239Z,10.15
2019-04-21T00:24:46.131Z,10.12
2019-04-21T00:34:30.193Z,9.81
2019-04-21T00:39:55.814Z,9.46
2019-04-21T00:44:40.098Z,9.38
2019-04-21T00:54:58.563Z,9.46
2019-04-21T00:59:49.994Z,9.18
2019-04-21T01:04:51.420Z,9.08
2019-04-21T01:09:42.680Z,9.21
2019-04-21T01:14:54.150Z,9.20
2019-04-21T01:19:47.105Z,9.13
2019-04-21T01:24:29.462Z,9.06
2019-04-21T01:29:48.137Z,8.86
2019-04-21T01:34:45.110Z,8.39
2019-04-21T01:39:46.963Z,8.23
2019-04-21T01:44:50.631Z,8.34
2019-04-21T01:49:37.253Z,8.31
2019-04-21T01:54:53.835Z,8.25
2019-04-21T01:59:35.566Z,8.47
2019-04-21T02:04:48.013Z,8.27
2019-04-21T02:09:38.394Z,8.00
2019-04-21T02:14:50.405Z,7.98
2019-04-21T02:19:37.460Z,7.84
2019-04-21T02:24:49.902Z,7.65
2019-04-21T02:29:47.144Z,7.70
2019-04-21T02:39:58.856Z,7.74
2019-04-21T02:44:51.422Z,7.89
2019-04-21T02:49:59.585Z,7.80
2019-04-21T02:55:04.114Z,7.76
2019-04-21T03:04:59.239Z,7.00
2019-04-21T03:20:00.689Z,6.23
2019-04-21T03:25:11.786Z,6.07
2019-04-21T03:29:55.523Z,6.13
2019-04-21T03:35:25.944Z,6.15
2019-04-21T03:39:50.720Z,6.12
2019-04-21T03:44:37.287Z,6.02
2019-04-21T03:49:54.336Z,5.77
2019-04-21T03:55:06.994Z,5.67
2019-04-21T04:29:41.964Z,5.32
2019-04-21T04:39:49.544Z,5.37
2019-04-21T04:54:57.532Z,5.04
2019-04-21T05:04:59.003Z,5.51
2019-04-21T05:14:39.681Z,5.39
2019-04-21T05:19:41.453Z,5.32
2019-04-21T05:24:31.781Z,5.58
2019-04-21T05:29:24.335Z,5.80
2019-04-21T05:34:31.533Z,5.99
2019-04-21T05:39:29.656Z,6.31
2019-04-21T05:54:29.865Z,9.64
2019-04-21T06:14:37.516Z,10.76
2019-04-21T06:19:38.258Z,12.19
2019-04-21T06:24:29.870Z,13.09
2019-04-21T06:29:30.113Z,13.44
2019-04-21T06:34:53.488Z,14.53
2019-04-21T06:39:30.746Z,14.33
2019-04-21T06:44:33.100Z,13.54
2019-04-21T06:54:27.880Z,14.57
2019-04-21T06:59:30.104Z,14.00
2019-04-21T07:04:29.694Z,13.72
2019-04-21T07:09:34.156Z,13.98
2019-04-21T07:19:23.763Z,13.59
2019-04-21T07:24:26.278Z,13.98
2019-04-21T07:34:27.246Z,14.29
2019-04-21T07:39:22.380Z,14.61
2019-04-21T07:44:18.170Z,15.32
2019-04-21T07:49:19.240Z,15.48
2019-04-21T07:59:31.463Z,16.32
2019-04-21T08:04:38.220Z,16.79
2019-04-21T08:09:18.298Z,19.24
2019-04-21T08:14:24.276Z,18.45
2019-04-21T08:24:14.946Z,19.62
2019-04-21T08:29:29.734Z,20.25
2019-04-21T08:34:23.907Z,20.91
2019-04-21T08:39:22.824Z,21.49
2019-04-21T08:44:25.621Z,21.71
2019-04-21T08:49:14.997Z,21.92
2019-04-21T08:54:16.493Z,23.02
2019-04-21T08:59:21.884Z,23.10
2019-04-21T09:04:15.591Z,23.05
2019-04-21T09:09:19.918Z,23.37
2019-04-21T09:14:13.179Z,24.09
2019-04-21T09:19:11.741Z,24.00
2019-04-21T09:24:14.801Z,23.53
2019-04-21T09:29:04.369Z,23.94
2019-04-21T09:33:56.989Z,22.81
2019-04-21T09:39:02.449Z,23.41
2019-04-21T09:43:54.526Z,23.67
2019-04-21T09:48:59.059Z,23.77
2019-04-21T09:54:00.886Z,23.73
2019-04-21T10:03:56.654Z,24.06
2019-04-21T10:08:57.474Z,24.42
2019-04-21T10:13:52.904Z,24.36
2019-04-21T10:18:52.322Z,25.11
2019-04-21T10:23:50.347Z,25.39
2019-04-21T10:28:49.301Z,25.49
2019-04-21T10:33:50.288Z,24.94
2019-04-21T10:38:51.654Z,24.72
2019-04-21T10:43:49.324Z,24.19
2019-04-21T10:48:48.617Z,23.57
2019-04-21T10:53:50.812Z,23.04
2019-04-21T10:58:47.354Z,23.12
2019-04-21T11:03:46.718Z,23.24
2019-04-21T11:08:48.848Z,23.39
2019-04-21T11:13:46.766Z,23.65
2019-04-21T11:18:46.260Z,23.07
2019-04-21T11:23:46.229Z,23.46
2019-04-21T11:28:47.445Z,22.47
2019-04-21T11:33:47.589Z,22.56
2019-04-21T11:39:02.370Z,23.33
2019-04-21T11:43:46.275Z,23.29
2019-04-21T11:48:46.159Z,23.45
2019-04-21T11:58:43.942Z,24.64
2019-04-21T12:03:43.361Z,23.42
2019-04-21T12:08:46.193Z,23.42
2019-04-21T12:13:43.384Z,23.65
2019-04-21T12:18:43.360Z,23.59
2019-04-21T12:23:42.925Z,23.91
2019-04-21T12:28:43.767Z,23.85
2019-04-21T12:33:43.626Z,23.69
2019-04-21T12:38:50.932Z,23.76
2019-04-21T12:43:44.639Z,24.63
2019-04-21T12:48:44.267Z,24.34
2019-04-21T12:53:43.557Z,23.90
2019-04-21T12:58:43.519Z,23.91
2019-04-21T13:03:41.790Z,24.02
2019-04-21T13:08:49.806Z,24.12
2019-04-21T13:13:41.892Z,24.67
2019-04-21T13:18:41.528Z,24.41
2019-04-21T13:23:41.121Z,24.48
2019-04-21T13:28:40.400Z,24.74
2019-04-21T13:38:43.165Z,25.13
2019-04-21T13:43:39.460Z,25.76
2019-04-21T13:48:40.298Z,25.33
2019-04-21T13:53:39.809Z,25.38
2019-04-21T13:58:38.011Z,25.89
2019-04-21T14:03:37.742Z,26.29
2019-04-21T14:08:38.634Z,26.30
2019-04-21T14:13:36.721Z,26.97
2019-04-21T14:18:36.741Z,26.83
2019-04-21T14:28:36.713Z,25.56
2019-04-21T14:33:36.744Z,24.56
2019-04-21T14:38:36.615Z,24.44
2019-04-21T14:43:34.472Z,24.37
2019-04-21T14:48:34.909Z,24.92
2019-04-21T14:53:34.084Z,24.35
2019-04-21T14:58:32.987Z,24.43
2019-04-21T15:03:34.243Z,24.91
2019-04-21T15:08:33.264Z,24.94
2019-04-21T15:13:32.315Z,25.38
2019-04-21T15:18:32.768Z,24.63
2019-04-21T15:23:32.482Z,24.60
2019-04-21T15:28:33.614Z,24.19
2019-04-21T15:33:31.544Z,24.23
2019-04-21T15:38:31.929Z,25.11
2019-04-21T15:43:30.910Z,25.59
2019-04-21T15:48:30.835Z,25.68
2019-04-21T15:53:29.789Z,25.55
2019-04-21T15:58:28.351Z,24.93
2019-04-21T16:03:28.981Z,24.81
2019-04-21T16:08:29.000Z,25.10
2019-04-21T16:18:29.929Z,25.13
2019-04-21T16:23:28.639Z,24.50
2019-04-21T16:28:27.060Z,24.47
2019-04-21T16:38:25.763Z,23.67
2019-04-21T16:43:24.993Z,23.44
2019-04-21T16:48:25.381Z,22.90
2019-04-21T16:53:25.996Z,22.68
2019-04-21T16:58:27.404Z,22.58
2019-04-21T17:03:24.381Z,22.38
2019-04-21T17:08:26.051Z,22.20
2019-04-21T17:13:25.675Z,21.74
2019-04-21T17:18:44.918Z,21.56
2019-04-21T17:23:27.326Z,21.38
2019-04-21T17:33:27.993Z,20.64
2019-04-21T17:38:24.003Z,20.05
2019-04-21T17:43:23.873Z,19.50
2019-04-21T17:48:25.144Z,18.97
2019-04-21T17:53:30.321Z,18.58
2019-04-21T17:58:46.323Z,18.38
2019-04-21T18:08:48.353Z,17.86
2019-04-21T18:18:26.558Z,17.44
2019-04-21T18:23:38.219Z,17.34
2019-04-21T18:28:23.773Z,17.28
2019-04-21T18:33:29.447Z,17.16
2019-04-21T18:38:27.059Z,16.94
2019-04-21T18:48:31.491Z,16.66
2019-04-21T18:53:35.188Z,16.51
2019-04-21T18:58:20.154Z,16.41
2019-04-21T19:03:25.246Z,16.35
2019-04-21T19:08:38.724Z,16.21
2019-04-21T19:13:45.698Z,16.25
2019-04-21T19:18:56.458Z,16.15
2019-04-21T19:23:47.240Z,16.06
2019-04-21T19:28:41.013Z,15.90
2019-04-21T19:38:18.126Z,15.73
2019-04-21T19:43:35.889Z,15.73
2019-04-21T19:48:41.529Z,15.70
2019-04-21T19:53:29.924Z,15.62
2019-04-21T19:58:19.438Z,15.60
2019-04-21T20:03:18.763Z,15.46
2019-04-21T20:08:34.484Z,15.23
2019-04-21T20:13:42.145Z,15.02
2019-04-21T20:18:27.262Z,14.96
2019-04-21T20:23:22.896Z,14.80
2019-04-21T20:28:34.270Z,14.62
2019-04-21T20:33:53.876Z,14.57
2019-04-21T20:38:28.879Z,14.56
2019-04-21T20:53:33.072Z,14.37
2019-04-21T20:58:28.058Z,14.35
2019-04-21T21:03:37.722Z,14.29
2019-04-21T21:08:31.226Z,14.17
2019-04-21T21:13:31.885Z,13.96
2019-04-21T21:18:54.699Z,13.83
2019-04-21T21:23:29.103Z,13.85
2019-04-21T21:28:26.621Z,13.77
2019-04-21T21:33:22.475Z,13.60
2019-04-21T21:43:15.255Z,13.52
2019-04-21T21:48:26.316Z,13.33
2019-04-21T21:53:18.761Z,13.20
2019-04-21T21:58:10.402Z,13.01
2019-04-21T22:03:16.306Z,12.54
2019-04-21T22:08:08.012Z,12.05
2019-04-21T22:18:26.757Z,11.77
2019-04-21T22:28:05.830Z,11.78
2019-04-21T22:33:10.062Z,11.70
2019-04-21T22:38:19.055Z,11.51
2019-04-21T22:43:16.863Z,11.27
2019-04-21T22:48:14.286Z,11.45
2019-04-21T22:53:09.641Z,11.77
2019-04-21T22:58:07.481Z,11.88
2019-04-21T23:03:10.730Z,11.66
2019-04-21T23:08:07.206Z,11.62
2019-04-21T23:13:12.179Z,11.43
2019-04-21T23:18:22.696Z,11.31
2019-04-21T23:23:17.943Z,11.05
2019-04-21T23:28:14.815Z,10.79
2019-04-21T23:33:08.696Z,10.60
2019-04-21T23:38:07.264Z,10.55
2019-04-21T23:43:11.082Z,10.25
2019-04-21T23:48:18.454Z,10.13
2019-04-21T23:53:06.007Z,9.93
2019-04-21T23:58:11.388Z,9.58
